Neil N. Diehl (nnd) — WDB8701 — position and weather

sailwx.info

Track history (hours):
 
Tides and Currents Weather Stations Pressure Air Temp Water Temp Dewpoint Dewpoint Depression Visibility Wind Speed Wind Dir Waves Ship Positions

Neil N. Diehl (nnd)

Owner: Ingram Barge Company LLC, Nashville, TN. More information available from US FCC via Universal Licensing System and Coast Guard Vessel Documentation Center.

Last reported at 2018-May-11 11:23 UTC. Time now 2018-Jun-23 12:25 UTC.
Position N 38°31' W 090°16'.
Warning: this ship's position is 43 days out of date.

Length 39 m; draft 2.7 m.

Type: Ship (hazmat cat B). MMSI: 366963030.

Date/timePositionNaut miles runAvg speedWind from/ knotsBaromVisibWave heightAir tempDewpointWater temp
2018-May-11 11:23N 38°31' W 090°16'0 0.7
2018-May-11 10:57N 38°31' W 090°16'0 0.0
2018-May-11 10:03N 38°31' W 090°16'0 0.0
2018-May-11 09:58N 38°31' W 090°16'0 0.0
2018-May-11 00:14N 38°31' W 090°16'6 1.2
2018-May-10 19:21N 38°36' W 090°11'3 9.6
2018-May-10 19:00N 38°39' W 090°11'3 5.3
2018-May-10 18:30N 38°42' W 090°11'3 5.5
2018-May-10 18:00N 38°45' W 090°09'3 5.6
2018-May-10 17:27N 38°47' W 090°07'3 6.2
2018-May-10 17:00N 38°50' W 090°06'0 0.0
2018-May-10 16:24N 38°50' W 090°06'0 0.0
2018-May-10 16:00N 38°50' W 090°06'0 0.0
2018-May-10 15:30N 38°50' W 090°06'0 0.6
2018-May-10 14:59N 38°50' W 090°07'0 0.0
2018-May-10 14:29N 38°50' W 090°07'0 0.0
2018-May-10 13:59N 38°50' W 090°07'0 0.0
2018-May-10 13:29N 38°50' W 090°07'0 0.0
2018-May-10 12:59N 38°50' W 090°07'0 0.0
2018-May-10 12:29N 38°50' W 090°07'0 0.0
2018-May-10 11:59N 38°50' W 090°07'0 0.0
2018-May-10 11:29N 38°50' W 090°07'0 0.0
2018-May-10 10:59N 38°50' W 090°07'0 0.0
2018-May-10 10:29N 38°50' W 090°07'0 0.0
2018-May-10 09:59N 38°50' W 090°07'0 0.0
2018-May-10 09:29N 38°50' W 090°07'0 0.0
2018-May-10 08:59N 38°50' W 090°07'0 0.0
2018-May-10 08:29N 38°50' W 090°07'0 0.0
2018-May-10 07:56N 38°50' W 090°07'0 0.0
2018-May-10 07:29N 38°50' W 090°07'0 0.0
2018-May-10 06:59N 38°50' W 090°07'0 0.0
2018-May-10 06:29N 38°50' W 090°07'0 0.0
2018-May-10 05:59N 38°50' W 090°07'0 0.0
2018-May-10 05:29N 38°50' W 090°07'0 0.0
2018-May-10 04:59N 38°50' W 090°07'0 0.0
2018-May-10 04:29N 38°50' W 090°07'0 0.0
2018-May-10 03:59N 38°50' W 090°07'0 0.0
2018-May-10 03:29N 38°50' W 090°07'0 0.0
2018-May-10 02:59N 38°50' W 090°07'0 0.0
2018-May-10 02:29N 38°50' W 090°07'0 0.0
2018-May-10 01:56N 38°50' W 090°07'0 0.0
2018-May-10 01:29N 38°50' W 090°07'0 0.0
2018-May-10 00:59N 38°50' W 090°07'0 0.0
2018-May-10 00:29N 38°50' W 090°07'0 0.0
2018-May-09 23:59N 38°50' W 090°07'0 0.0
2018-May-09 23:29N 38°50' W 090°07'0 0.0
2018-May-09 22:59N 38°50' W 090°07'0 0.0
2018-May-09 08:25N 38°50' W 090°06'0 0.0
2018-May-09 08:00N 38°50' W 090°06'0 0.0
2018-May-09 07:30N 38°50' W 090°06'1 2.2
2018-May-09 07:00N 38°49' W 090°07'2 4.1
2018-May-09 06:30N 38°47' W 090°08'3 6.4
2018-May-09 06:00N 38°44' W 090°09'2 4.8
2018-May-09 05:30N 38°42' W 090°11'1 2.5
2018-May-09 05:00N 38°41' W 090°11'2 4.1
2018-May-09 04:30N 38°39' W 090°11'8 2.2
2018-May-09 00:51N 38°32' W 090°16'4 7.1
2018-May-09 00:16N 38°35' W 090°13'310.7
2018-May-09 00:00N 38°38' W 090°11'4 7.9
2018-May-08 23:30N 38°42' W 090°11'1 1.6
2018-May-08 23:00N 38°42' W 090°11'1 2.3
2018-May-08 22:30N 38°43' W 090°10'1 2.0
2018-May-08 22:00N 38°44' W 090°09'1 1.5
2018-May-08 21:30N 38°45' W 090°09'0 0.1
2018-May-08 21:00N 38°45' W 090°09'0 0.1
2018-May-08 20:30N 38°45' W 090°09'2 3.3
2018-May-08 20:00N 38°46' W 090°08'3 5.3
2018-May-08 19:30N 38°49' W 090°07'3 6.5
2018-May-08 19:00N 38°52' W 090°08'1 1.5
2018-May-08 18:30N 38°52' W 090°09'1 1.8
2018-May-08 18:00N 38°53' W 090°10'3 6.1
2018-May-08 17:30N 38°55' W 090°13'1 2.8
2018-May-08 17:00N 38°55' W 090°15'4 7.1
2018-May-08 16:30N 38°56' W 090°19'4 7.3
2018-May-08 16:01N 38°58' W 090°23'3 6.8
2018-May-08 15:30N 38°57' W 090°28'3 6.8
2018-May-08 15:00N 38°55' W 090°31'3 6.8
2018-May-08 14:30N 38°52' W 090°33'3 6.5
2018-May-08 14:00N 38°53' W 090°37'4 7.2
2018-May-08 13:30N 38°56' W 090°40'4 7.5
2018-May-08 13:00N 38°60' W 090°41'1 1.1
2018-May-08 12:30N 39°00' W 090°41'0 0.0
2018-May-08 12:00N 39°00' W 090°41'0 0.3
2018-May-08 11:30N 39°00' W 090°41'0 0.0
2018-May-08 11:01N 39°00' W 090°41'0 0.6
2018-May-08 10:31N 39°01' W 090°42'3 5.2
2018-May-08 10:00N 39°03' W 090°43'3 6.8
2018-May-08 09:30N 39°06' W 090°41'4 7.1
2018-May-08 08:59N 39°09' W 090°43'6 6.8
2018-May-08 08:04N 39°16' W 090°44'5 6.3
2018-May-08 07:13N 39°19' W 090°49'1 5.9
2018-May-08 07:00N 39°20' W 090°50'3 6.4
2018-May-08 06:29N 39°22' W 090°54'1 1.5
2018-May-08 06:00N 39°22' W 090°54'  
2018-May-02 14:19N 39°10' W 090°43'1 4.7
2018-May-02 14:00N 39°08' W 090°42'3 5.0
2018-May-02 13:30N 39°06' W 090°41'2 4.5
2018-May-02 12:59N 39°04' W 090°42'1 1.9
2018-May-02 12:30N 39°03' W 090°43'3 1.9
2018-May-02 10:46N 39°00' W 090°41'0 0.0
2018-May-02 10:30N 39°00' W 090°41'2 4.1
2018-May-02 10:00N 38°58' W 090°40'1 1.3
2018-May-02 09:30N 38°57' W 090°40'0 0.0
2018-May-02 09:00N 38°57' W 090°40'0 0.0
2018-May-02 08:30N 38°57' W 090°40'0 0.0
2018-May-02 08:00N 38°57' W 090°40'0 0.0
2018-May-02 07:30N 38°57' W 090°40'0 0.0
2018-May-02 07:00N 38°57' W 090°40'0 0.0
2018-May-02 06:30N 38°57' W 090°40'0 0.0
2018-May-02 06:00N 38°57' W 090°40'0 0.0
2018-May-02 05:30N 38°57' W 090°40'0 0.0
2018-May-02 05:00N 38°57' W 090°40'0 0.0
2018-May-02 04:30N 38°57' W 090°40'0 0.0
2018-May-02 04:00N 38°57' W 090°40'0 0.0
2018-May-02 03:30N 38°57' W 090°40'0 0.0
2018-May-02 03:00N 38°57' W 090°40'0 0.0
2018-May-02 02:30N 38°57' W 090°40'0 0.0
2018-May-02 02:00N 38°57' W 090°40'0 0.0
2018-May-02 01:30N 38°57' W 090°40'0 0.0
2018-May-02 01:00N 38°57' W 090°40'0 0.0
2018-May-02 00:30N 38°57' W 090°40'0 0.0
2018-May-02 00:00N 38°57' W 090°40'0 0.6
2018-May-01 23:30N 38°57' W 090°40'2 3.4
2018-May-01 23:00N 38°55' W 090°40'2 4.5
2018-May-01 22:30N 38°54' W 090°38'2 4.8
2018-May-01 22:00N 38°52' W 090°36'2 5.0
2018-May-01 21:30N 38°52' W 090°33'2 4.8
2018-May-01 21:00N 38°55' W 090°31'2 4.8
2018-May-01 20:30N 38°56' W 090°29'1 2.6
2018-May-01 20:00N 38°57' W 090°28'0 0.1
2018-May-01 19:30N 38°57' W 090°28'0 0.0
2018-May-01 19:00N 38°57' W 090°28'0 0.0
2018-May-01 18:30N 38°57' W 090°28'1 2.9
2018-May-01 18:00N 38°58' W 090°26'1 2.8
2018-May-01 17:30N 38°58' W 090°24'0 0.4
2018-May-01 17:00N 38°58' W 090°24'0 0.9
2018-May-01 16:30N 38°58' W 090°24'1 2.1
2018-May-01 16:00N 38°57' W 090°22'2 4.6
2018-May-01 15:30N 38°56' W 090°20'2 4.6
2018-May-01 15:00N 38°55' W 090°17'2 4.6
2018-May-01 14:30N 38°55' W 090°14'0 0.6
2018-May-01 14:00N 38°55' W 090°14'0 0.3
2018-May-01 13:30N 38°55' W 090°14'2 4.3
2018-May-01 13:00N 38°53' W 090°11'2 4.1
2018-May-01 12:29N 38°52' W 090°09'0 0.8
2018-May-01 12:00N 38°52' W 090°09'0 0.5
2018-May-01 11:30N 38°52' W 090°09'  
Track history (hours):
 
Tides and Currents Weather Stations Pressure Air Temp Water Temp Dewpoint Dewpoint Depression Visibility Wind Speed Wind Dir Waves Ship Positions

Neil N. Diehl (nnd)

Owner: Ingram Barge Company LLC, Nashville, TN. More information available from US FCC via Universal Licensing System and Coast Guard Vessel Documentation Center.

Last reported at 2018-May-11 11:23 UTC. Time now 2018-Jun-23 12:25 UTC.
Position N 38°31' W 090°16'.
Warning: this ship's position is 43 days out of date.

Length 39 m; draft 2.7 m.

Type: Ship (hazmat cat B). MMSI: 366963030.

Date/timePositionNaut miles runAvg speedWind from/ knotsBaromVisibWave heightAir tempDewpointWater temp
2018-May-11 11:23N 38°31' W 090°16'0 0.7
2018-May-11 10:57N 38°31' W 090°16'0 0.0
2018-May-11 10:03N 38°31' W 090°16'0 0.0
2018-May-11 09:58N 38°31' W 090°16'0 0.0
2018-May-11 00:14N 38°31' W 090°16'6 1.2
2018-May-10 19:21N 38°36' W 090°11'3 9.6
2018-May-10 19:00N 38°39' W 090°11'3 5.3
2018-May-10 18:30N 38°42' W 090°11'3 5.5
2018-May-10 18:00N 38°45' W 090°09'3 5.6
2018-May-10 17:27N 38°47' W 090°07'3 6.2
2018-May-10 17:00N 38°50' W 090°06'0 0.0
2018-May-10 16:24N 38°50' W 090°06'0 0.0
2018-May-10 16:00N 38°50' W 090°06'0 0.0
2018-May-10 15:30N 38°50' W 090°06'0 0.6
2018-May-10 14:59N 38°50' W 090°07'0 0.0
2018-May-10 14:29N 38°50' W 090°07'0 0.0
2018-May-10 13:59N 38°50' W 090°07'0 0.0
2018-May-10 13:29N 38°50' W 090°07'0 0.0
2018-May-10 12:59N 38°50' W 090°07'0 0.0
2018-May-10 12:29N 38°50' W 090°07'0 0.0
2018-May-10 11:59N 38°50' W 090°07'0 0.0
2018-May-10 11:29N 38°50' W 090°07'0 0.0
2018-May-10 10:59N 38°50' W 090°07'0 0.0
2018-May-10 10:29N 38°50' W 090°07'0 0.0
2018-May-10 09:59N 38°50' W 090°07'0 0.0
2018-May-10 09:29N 38°50' W 090°07'0 0.0
2018-May-10 08:59N 38°50' W 090°07'0 0.0
2018-May-10 08:29N 38°50' W 090°07'0 0.0
2018-May-10 07:56N 38°50' W 090°07'0 0.0
2018-May-10 07:29N 38°50' W 090°07'0 0.0
2018-May-10 06:59N 38°50' W 090°07'0 0.0
2018-May-10 06:29N 38°50' W 090°07'0 0.0
2018-May-10 05:59N 38°50' W 090°07'0 0.0
2018-May-10 05:29N 38°50' W 090°07'0 0.0
2018-May-10 04:59N 38°50' W 090°07'0 0.0
2018-May-10 04:29N 38°50' W 090°07'0 0.0
2018-May-10 03:59N 38°50' W 090°07'0 0.0
2018-May-10 03:29N 38°50' W 090°07'0 0.0
2018-May-10 02:59N 38°50' W 090°07'0 0.0
2018-May-10 02:29N 38°50' W 090°07'0 0.0
2018-May-10 01:56N 38°50' W 090°07'0 0.0
2018-May-10 01:29N 38°50' W 090°07'0 0.0
2018-May-10 00:59N 38°50' W 090°07'0 0.0
2018-May-10 00:29N 38°50' W 090°07'0 0.0
2018-May-09 23:59N 38°50' W 090°07'0 0.0
2018-May-09 23:29N 38°50' W 090°07'0 0.0
2018-May-09 22:59N 38°50' W 090°07'0 0.0
2018-May-09 08:25N 38°50' W 090°06'0 0.0
2018-May-09 08:00N 38°50' W 090°06'0 0.0
2018-May-09 07:30N 38°50' W 090°06'1 2.2
2018-May-09 07:00N 38°49' W 090°07'2 4.1
2018-May-09 06:30N 38°47' W 090°08'3 6.4
2018-May-09 06:00N 38°44' W 090°09'2 4.8
2018-May-09 05:30N 38°42' W 090°11'1 2.5
2018-May-09 05:00N 38°41' W 090°11'2 4.1
2018-May-09 04:30N 38°39' W 090°11'8 2.2
2018-May-09 00:51N 38°32' W 090°16'4 7.1
2018-May-09 00:16N 38°35' W 090°13'310.7
2018-May-09 00:00N 38°38' W 090°11'4 7.9
2018-May-08 23:30N 38°42' W 090°11'1 1.6
2018-May-08 23:00N 38°42' W 090°11'1 2.3
2018-May-08 22:30N 38°43' W 090°10'1 2.0
2018-May-08 22:00N 38°44' W 090°09'1 1.5
2018-May-08 21:30N 38°45' W 090°09'0 0.1
2018-May-08 21:00N 38°45' W 090°09'0 0.1
2018-May-08 20:30N 38°45' W 090°09'2 3.3
2018-May-08 20:00N 38°46' W 090°08'3 5.3
2018-May-08 19:30N 38°49' W 090°07'3 6.5
2018-May-08 19:00N 38°52' W 090°08'1 1.5
2018-May-08 18:30N 38°52' W 090°09'1 1.8
2018-May-08 18:00N 38°53' W 090°10'3 6.1
2018-May-08 17:30N 38°55' W 090°13'1 2.8
2018-May-08 17:00N 38°55' W 090°15'4 7.1
2018-May-08 16:30N 38°56' W 090°19'4 7.3
2018-May-08 16:01N 38°58' W 090°23'3 6.8
2018-May-08 15:30N 38°57' W 090°28'3 6.8
2018-May-08 15:00N 38°55' W 090°31'3 6.8
2018-May-08 14:30N 38°52' W 090°33'3 6.5
2018-May-08 14:00N 38°53' W 090°37'4 7.2
2018-May-08 13:30N 38°56' W 090°40'4 7.5
2018-May-08 13:00N 38°60' W 090°41'1 1.1
2018-May-08 12:30N 39°00' W 090°41'0 0.0
2018-May-08 12:00N 39°00' W 090°41'0 0.3
2018-May-08 11:30N 39°00' W 090°41'0 0.0
2018-May-08 11:01N 39°00' W 090°41'0 0.6
2018-May-08 10:31N 39°01' W 090°42'3 5.2
2018-May-08 10:00N 39°03' W 090°43'3 6.8
2018-May-08 09:30N 39°06' W 090°41'4 7.1
2018-May-08 08:59N 39°09' W 090°43'6 6.8
2018-May-08 08:04N 39°16' W 090°44'5 6.3
2018-May-08 07:13N 39°19' W 090°49'1 5.9
2018-May-08 07:00N 39°20' W 090°50'3 6.4
2018-May-08 06:29N 39°22' W 090°54'1 1.5
2018-May-08 06:00N 39°22' W 090°54'  
2018-May-02 14:19N 39°10' W 090°43'1 4.7
2018-May-02 14:00N 39°08' W 090°42'3 5.0
2018-May-02 13:30N 39°06' W 090°41'2 4.5
2018-May-02 12:59N 39°04' W 090°42'1 1.9
2018-May-02 12:30N 39°03' W 090°43'3 1.9
2018-May-02 10:46N 39°00' W 090°41'0 0.0
2018-May-02 10:30N 39°00' W 090°41'2 4.1
2018-May-02 10:00N 38°58' W 090°40'1 1.3
2018-May-02 09:30N 38°57' W 090°40'0 0.0
2018-May-02 09:00N 38°57' W 090°40'0 0.0
2018-May-02 08:30N 38°57' W 090°40'0 0.0
2018-May-02 08:00N 38°57' W 090°40'0 0.0
2018-May-02 07:30N 38°57' W 090°40'0 0.0
2018-May-02 07:00N 38°57' W 090°40'0 0.0
2018-May-02 06:30N 38°57' W 090°40'0 0.0
2018-May-02 06:00N 38°57' W 090°40'0 0.0
2018-May-02 05:30N 38°57' W 090°40'0 0.0
2018-May-02 05:00N 38°57' W 090°40'0 0.0
2018-May-02 04:30N 38°57' W 090°40'0 0.0
2018-May-02 04:00N 38°57' W 090°40'0 0.0
2018-May-02 03:30N 38°57' W 090°40'0 0.0
2018-May-02 03:00N 38°57' W 090°40'0 0.0
2018-May-02 02:30N 38°57' W 090°40'0 0.0
2018-May-02 02:00N 38°57' W 090°40'0 0.0
2018-May-02 01:30N 38°57' W 090°40'0 0.0
2018-May-02 01:00N 38°57' W 090°40'0 0.0
2018-May-02 00:30N 38°57' W 090°40'0 0.0
2018-May-02 00:00N 38°57' W 090°40'0 0.6
2018-May-01 23:30N 38°57' W 090°40'2 3.4
2018-May-01 23:00N 38°55' W 090°40'2 4.5
2018-May-01 22:30N 38°54' W 090°38'2 4.8
2018-May-01 22:00N 38°52' W 090°36'2 5.0
2018-May-01 21:30N 38°52' W 090°33'2 4.8
2018-May-01 21:00N 38°55' W 090°31'2 4.8
2018-May-01 20:30N 38°56' W 090°29'1 2.6
2018-May-01 20:00N 38°57' W 090°28'0 0.1
2018-May-01 19:30N 38°57' W 090°28'0 0.0
2018-May-01 19:00N 38°57' W 090°28'0 0.0
2018-May-01 18:30N 38°57' W 090°28'1 2.9
2018-May-01 18:00N 38°58' W 090°26'1 2.8
2018-May-01 17:30N 38°58' W 090°24'0 0.4
2018-May-01 17:00N 38°58' W 090°24'0 0.9
2018-May-01 16:30N 38°58' W 090°24'1 2.1
2018-May-01 16:00N 38°57' W 090°22'2 4.6
2018-May-01 15:30N 38°56' W 090°20'2 4.6
2018-May-01 15:00N 38°55' W 090°17'2 4.6
2018-May-01 14:30N 38°55' W 090°14'0 0.6
2018-May-01 14:00N 38°55' W 090°14'0 0.3
2018-May-01 13:30N 38°55' W 090°14'2 4.3
2018-May-01 13:00N 38°53' W 090°11'2 4.1
2018-May-01 12:29N 38°52' W 090°09'0 0.8
2018-May-01 12:00N 38°52' W 090°09'0 0.5
2018-May-01 11:30N 38°52' W 090°09'  

Dump ship's entire track history